createdAt,value
2023-05-23T00:02:28.923Z,20.01
2023-05-23T00:04:58.501Z,19.96
2023-05-23T00:07:28.124Z,19.94
2023-05-23T00:09:56.267Z,19.92
2023-05-23T00:12:24.447Z,19.93
2023-05-23T00:14:53.612Z,19.91
2023-05-23T00:17:25.415Z,19.86
2023-05-23T00:19:56.121Z,19.80
2023-05-23T00:22:24.441Z,19.85
2023-05-23T00:24:53.960Z,19.82
2023-05-23T00:27:22.051Z,19.78
2023-05-23T00:29:50.399Z,19.77
2023-05-23T00:32:18.489Z,19.72
2023-05-23T00:34:46.884Z,19.72
2023-05-23T00:37:15.146Z,19.70
2023-05-23T00:39:43.318Z,19.67
2023-05-23T00:42:12.880Z,19.66
2023-05-23T00:44:41.081Z,19.66
2023-05-23T00:47:09.691Z,19.65
2023-05-23T00:49:38.087Z,19.64
2023-05-23T00:52:07.680Z,19.63
2023-05-23T00:54:37.481Z,19.62
2023-05-23T00:57:06.694Z,19.61
2023-05-23T00:59:38.976Z,19.60
2023-05-23T01:02:08.386Z,19.55
2023-05-23T01:04:37.473Z,19.57
2023-05-23T01:07:06.427Z,19.53
2023-05-23T01:09:34.852Z,19.51
2023-05-23T01:12:18.237Z,19.50
2023-05-23T01:14:58.021Z,19.50
2023-05-23T01:17:43.764Z,19.50
2023-05-23T01:20:15.877Z,19.47
2023-05-23T01:23:15.498Z,19.44
2023-05-23T01:26:14.742Z,19.41
2023-05-23T01:28:48.758Z,19.43
2023-05-23T01:31:18.586Z,19.40
2023-05-23T01:33:50.165Z,19.42
2023-05-23T01:36:18.382Z,19.40
2023-05-23T01:38:46.584Z,19.44
2023-05-23T01:41:14.752Z,19.45
2023-05-23T01:43:44.295Z,19.49
2023-05-23T01:46:13.051Z,19.49
2023-05-23T01:48:42.321Z,19.48
2023-05-23T01:51:10.610Z,19.49
2023-05-23T01:53:39.189Z,19.49
2023-05-23T01:56:07.550Z,19.51
2023-05-23T01:58:35.980Z,19.50
2023-05-23T02:01:07.429Z,19.53
2023-05-23T02:03:37.110Z,19.52
2023-05-23T02:06:06.834Z,19.56
2023-05-23T02:08:36.025Z,19.56
2023-05-23T02:11:04.338Z,19.57
2023-05-23T02:13:32.536Z,19.57
2023-05-23T02:16:00.913Z,19.58
2023-05-23T02:18:31.562Z,19.61
2023-05-23T02:20:59.940Z,19.61
2023-05-23T02:23:27.996Z,19.61
2023-05-23T02:25:56.148Z,19.61
2023-05-23T02:28:24.365Z,19.60
2023-05-23T02:30:52.571Z,19.55
2023-05-23T02:33:20.719Z,19.56
2023-05-23T02:35:51.551Z,19.57
2023-05-23T02:38:20.680Z,19.55
2023-05-23T02:40:50.457Z,19.57
2023-05-23T02:43:18.999Z,19.53
2023-05-23T02:45:47.377Z,19.52
2023-05-23T02:48:17.458Z,19.54
2023-05-23T02:50:46.385Z,19.58
2023-05-23T02:53:16.252Z,19.56
2023-05-23T02:55:44.588Z,19.56
2023-05-23T02:58:12.965Z,19.57
2023-05-23T03:00:43.704Z,19.58
2023-05-23T03:03:12.090Z,19.52
2023-05-23T03:05:40.722Z,19.55
2023-05-23T03:08:09.052Z,19.56
2023-05-23T03:10:38.592Z,19.55
2023-05-23T03:13:06.839Z,19.57
2023-05-23T03:15:36.542Z,19.57
2023-05-23T03:18:05.136Z,19.58
2023-05-23T03:20:33.424Z,19.58
2023-05-23T03:23:01.797Z,19.59
2023-05-23T03:25:29.997Z,19.59
2023-05-23T03:27:59.752Z,19.63
2023-05-23T03:30:28.148Z,19.62
2023-05-23T03:32:56.428Z,19.55
2023-05-23T03:35:24.653Z,19.59
2023-05-23T03:37:52.856Z,19.60
2023-05-23T03:40:22.110Z,19.57
2023-05-23T03:43:02.598Z,19.59
2023-05-23T03:45:32.380Z,19.57
2023-05-23T03:48:02.829Z,19.57
2023-05-23T03:50:31.703Z,19.55
2023-05-23T03:53:00.367Z,19.55
2023-05-23T03:55:34.432Z,19.52
2023-05-23T03:58:04.105Z,19.54
2023-05-23T04:00:33.764Z,19.58
2023-05-23T04:03:04.902Z,19.53
2023-05-23T04:05:33.810Z,19.55
2023-05-23T04:08:02.343Z,19.48
2023-05-23T04:10:31.272Z,19.52
2023-05-23T04:13:00.334Z,19.55
2023-05-23T04:15:29.111Z,19.54
2023-05-23T04:18:01.362Z,19.56
2023-05-23T04:20:29.761Z,19.54
2023-05-23T04:22:57.883Z,19.54
2023-05-23T04:25:27.358Z,19.52
2023-05-23T04:28:18.624Z,19.45
2023-05-23T04:30:49.374Z,19.47
2023-05-23T04:33:22.152Z,19.50
2023-05-23T04:35:51.217Z,19.50
2023-05-23T04:38:19.544Z,19.55
2023-05-23T04:40:48.263Z,19.52
2023-05-23T04:43:42.476Z,19.45
2023-05-23T04:46:26.835Z,19.49
2023-05-23T04:49:29.456Z,19.48
2023-05-23T04:51:57.797Z,19.51
2023-05-23T04:54:28.831Z,19.51
2023-05-23T04:57:00.178Z,19.47
2023-05-23T04:59:30.551Z,19.50
2023-05-23T05:01:58.652Z,19.46
2023-05-23T05:04:28.343Z,19.46
2023-05-23T05:06:57.338Z,19.44
2023-05-23T05:09:25.896Z,19.48
2023-05-23T05:11:54.064Z,19.45
2023-05-23T05:14:22.219Z,19.53
2023-05-23T05:16:50.810Z,19.54
2023-05-23T05:19:19.219Z,19.49
2023-05-23T05:21:49.004Z,19.45
2023-05-23T05:24:17.277Z,19.46
2023-05-23T05:26:45.879Z,19.46
2023-05-23T05:29:14.034Z,19.42
2023-05-23T05:31:43.507Z,19.40
2023-05-23T05:34:12.695Z,19.41
2023-05-23T05:36:45.859Z,19.37
2023-05-23T05:39:17.055Z,19.41
2023-05-23T05:41:45.445Z,19.40
2023-05-23T05:44:15.078Z,19.38
2023-05-23T05:46:43.410Z,19.34
2023-05-23T05:49:12.489Z,19.37
2023-05-23T05:51:41.202Z,19.37
2023-05-23T05:54:11.105Z,19.39
2023-05-23T05:56:42.292Z,19.36
2023-05-23T05:59:11.313Z,19.35
2023-05-23T06:01:40.827Z,19.25
2023-05-23T06:04:09.254Z,19.27
2023-05-23T06:06:37.628Z,19.33
2023-05-23T06:09:05.948Z,19.30
2023-05-23T06:11:35.152Z,19.31
2023-05-23T06:14:29.367Z,19.26
2023-05-23T06:16:58.185Z,19.29
2023-05-23T06:19:26.409Z,19.30
2023-05-23T06:21:55.055Z,19.38
2023-05-23T06:24:23.692Z,19.32
2023-05-23T06:26:51.768Z,19.32
2023-05-23T06:29:21.401Z,19.42
2023-05-23T06:31:49.633Z,19.49
2023-05-23T06:34:18.070Z,19.48
2023-05-23T06:36:48.446Z,19.37
2023-05-23T06:39:17.693Z,19.38
2023-05-23T06:41:46.024Z,19.40
2023-05-23T06:44:14.860Z,19.45
2023-05-23T06:46:47.606Z,19.44
2023-05-23T06:49:16.795Z,19.34
2023-05-23T06:51:46.462Z,19.31
2023-05-23T06:54:14.994Z,19.30
2023-05-23T06:56:43.335Z,19.31
2023-05-23T06:59:11.832Z,19.20
2023-05-23T07:01:40.911Z,19.25
2023-05-23T07:04:12.096Z,19.28
2023-05-23T07:06:40.612Z,19.19
2023-05-23T07:09:11.843Z,19.24
2023-05-23T07:11:41.294Z,19.25
2023-05-23T07:14:10.671Z,19.22
2023-05-23T07:16:42.849Z,19.23
2023-05-23T07:19:12.442Z,19.23
2023-05-23T07:21:47.309Z,19.16
2023-05-23T07:24:18.234Z,19.22
2023-05-23T07:26:46.506Z,19.27
2023-05-23T07:29:14.602Z,19.11
2023-05-23T07:31:44.745Z,18.77
2023-05-23T07:34:17.345Z,18.88
2023-05-23T07:36:54.370Z,18.94
2023-05-23T07:39:24.413Z,18.93
2023-05-23T07:41:53.558Z,19.01
2023-05-23T07:44:24.622Z,19.05
2023-05-23T07:46:54.083Z,19.12
2023-05-23T07:49:24.428Z,18.99
2023-05-23T07:51:52.612Z,18.99
2023-05-23T07:54:20.864Z,19.06
2023-05-23T07:56:53.924Z,19.11
2023-05-23T07:59:22.675Z,19.06
2023-05-23T08:01:52.632Z,19.10
2023-05-23T08:04:24.826Z,19.10
2023-05-23T08:07:04.063Z,19.16
2023-05-23T08:10:08.341Z,18.96
2023-05-23T08:12:36.574Z,18.95
2023-05-23T08:15:13.094Z,19.02
2023-05-23T08:17:48.749Z,19.02
2023-05-23T08:20:19.480Z,18.98
2023-05-23T08:22:47.798Z,18.90
2023-05-23T08:25:16.267Z,18.78
2023-05-23T08:27:44.624Z,18.84
2023-05-23T08:30:33.958Z,18.95
2023-05-23T08:33:04.865Z,18.96
2023-05-23T08:35:36.579Z,19.11
2023-05-23T08:38:08.942Z,19.15
2023-05-23T08:40:43.458Z,19.22
2023-05-23T08:43:14.618Z,19.17
2023-05-23T08:45:43.345Z,19.22
2023-05-23T08:48:16.075Z,19.30
2023-05-23T08:50:50.510Z,19.31
2023-05-23T08:53:24.171Z,19.35
2023-05-23T08:56:02.620Z,19.28
2023-05-23T08:58:41.856Z,19.20
2023-05-23T09:01:11.618Z,19.23
2023-05-23T09:03:42.394Z,19.16
2023-05-23T09:06:22.988Z,19.09
2023-05-23T09:08:53.566Z,19.01
2023-05-23T09:11:24.439Z,18.96
2023-05-23T09:13:52.645Z,19.10
2023-05-23T09:16:22.928Z,19.17
2023-05-23T09:18:55.953Z,19.16
2023-05-23T09:21:28.381Z,19.20
2023-05-23T09:24:11.313Z,19.24
2023-05-23T09:26:40.878Z,18.91
2023-05-23T09:29:08.992Z,19.08
2023-05-23T09:31:37.444Z,19.19
2023-05-23T09:34:06.929Z,19.18
2023-05-23T09:36:37.490Z,19.19
2023-05-23T09:39:06.539Z,19.28
2023-05-23T09:41:36.199Z,19.37
2023-05-23T09:44:09.331Z,19.44
2023-05-23T09:46:39.559Z,19.52
2023-05-23T09:49:18.930Z,19.49
2023-05-23T09:51:59.812Z,19.51
2023-05-23T09:54:28.206Z,19.59
2023-05-23T09:56:57.598Z,19.54
2023-05-23T09:59:29.480Z,19.66
2023-05-23T10:01:58.781Z,19.72
2023-05-23T10:04:29.416Z,19.69
2023-05-23T10:07:07.962Z,19.79
2023-05-23T10:09:40.710Z,19.96
2023-05-23T10:12:45.533Z,20.19
2023-05-23T10:15:17.761Z,20.10
2023-05-23T10:18:07.831Z,20.24
2023-05-23T10:20:40.678Z,20.28
2023-05-23T10:23:11.924Z,20.34
2023-05-23T10:25:42.119Z,20.43
2023-05-23T10:28:10.886Z,20.37
2023-05-23T10:30:39.920Z,20.42
2023-05-23T10:33:09.583Z,20.46
2023-05-23T10:35:52.258Z,20.39
2023-05-23T10:38:36.967Z,20.35
2023-05-23T10:41:14.686Z,20.09
2023-05-23T10:43:50.933Z,20.14
2023-05-23T10:46:22.575Z,20.16
2023-05-23T10:48:57.919Z,20.22
2023-05-23T10:51:26.766Z,20.16
2023-05-23T10:53:56.410Z,20.11
2023-05-23T10:56:25.995Z,20.14
2023-05-23T10:58:55.957Z,20.15
2023-05-23T11:01:24.942Z,20.08
2023-05-23T11:03:56.107Z,20.11
2023-05-23T11:06:34.065Z,20.16
2023-05-23T11:09:10.514Z,20.12
2023-05-23T11:12:02.964Z,20.23
2023-05-23T11:14:54.606Z,20.14
2023-05-23T11:17:34.548Z,20.11
2023-05-23T11:20:10.107Z,20.20
2023-05-23T11:22:39.885Z,20.23
2023-05-23T11:25:11.049Z,20.12
2023-05-23T11:27:41.644Z,19.96
2023-05-23T11:30:13.522Z,19.90
2023-05-23T11:32:43.260Z,20.01
2023-05-23T11:35:12.506Z,20.10
2023-05-23T11:37:41.126Z,20.08
2023-05-23T11:40:32.273Z,20.01
2023-05-23T11:43:01.997Z,20.05
2023-05-23T11:45:32.258Z,19.95
2023-05-23T11:48:05.791Z,19.80
2023-05-23T11:50:34.241Z,19.80
2023-05-23T11:53:02.919Z,19.93
2023-05-23T11:55:32.839Z,20.08
2023-05-23T11:58:02.567Z,20.18
2023-05-23T12:00:31.615Z,20.16
2023-05-23T12:03:00.212Z,20.13
2023-05-23T12:05:30.497Z,20.26
2023-05-23T12:08:01.526Z,20.40
2023-05-23T12:10:30.069Z,20.54
2023-05-23T12:12:59.939Z,20.74
2023-05-23T12:15:28.986Z,20.80
2023-05-23T12:17:57.939Z,20.77
2023-05-23T12:20:28.511Z,20.89
2023-05-23T12:22:58.657Z,20.83
2023-05-23T12:25:26.939Z,20.78
2023-05-23T12:27:56.305Z,20.71
2023-05-23T12:30:26.306Z,20.73
2023-05-23T12:32:54.906Z,20.72
2023-05-23T12:35:27.673Z,20.77
2023-05-23T12:37:59.051Z,20.84
2023-05-23T12:40:27.591Z,20.78
2023-05-23T12:42:57.616Z,20.83
2023-05-23T12:45:35.049Z,20.80
2023-05-23T12:48:04.233Z,20.88
2023-05-23T12:50:32.448Z,20.97
2023-05-23T12:53:00.879Z,21.07
2023-05-23T12:55:32.036Z,21.15
2023-05-23T12:58:00.191Z,21.17
2023-05-23T13:00:29.958Z,21.25
2023-05-23T13:02:58.407Z,21.33
2023-05-23T13:05:28.624Z,21.38
2023-05-23T13:07:59.421Z,21.32
2023-05-23T13:10:31.992Z,21.29
2023-05-23T13:13:00.569Z,21.37
2023-05-23T13:15:30.316Z,21.41
2023-05-23T13:18:01.010Z,21.39
2023-05-23T13:20:30.858Z,21.20
2023-05-23T13:23:00.226Z,21.23
2023-05-23T13:25:29.250Z,21.13
2023-05-23T13:27:58.099Z,21.06
2023-05-23T13:30:27.215Z,20.94
2023-05-23T13:32:56.808Z,20.74
2023-05-23T13:35:25.290Z,20.66
2023-05-23T13:37:53.725Z,20.70
2023-05-23T13:40:23.140Z,20.78
2023-05-23T13:42:56.635Z,20.70
2023-05-23T13:45:25.080Z,20.65
2023-05-23T13:47:53.427Z,20.68
2023-05-23T13:50:23.632Z,20.67
2023-05-23T13:52:51.816Z,20.45
2023-05-23T13:55:19.935Z,20.48
2023-05-23T13:57:48.418Z,20.45
2023-05-23T14:00:17.408Z,20.56
2023-05-23T14:02:51.162Z,20.61
2023-05-23T14:05:20.389Z,20.65
2023-05-23T14:07:50.238Z,20.73
2023-05-23T14:10:19.373Z,20.76
2023-05-23T14:12:48.812Z,20.71
2023-05-23T14:15:21.375Z,20.75
2023-05-23T14:17:50.128Z,20.78
2023-05-23T14:20:18.629Z,20.80
2023-05-23T14:22:46.866Z,20.82
2023-05-23T14:25:21.197Z,20.91
2023-05-23T14:27:49.330Z,20.79
2023-05-23T14:30:17.929Z,20.92
2023-05-23T14:32:47.442Z,21.06
2023-05-23T14:35:15.780Z,21.05
2023-05-23T14:37:44.060Z,21.13
2023-05-23T14:40:17.166Z,21.15
2023-05-23T14:42:46.632Z,21.18
2023-05-23T14:45:18.632Z,20.87
2023-05-23T14:47:48.159Z,20.97
2023-05-23T14:50:17.168Z,21.12
2023-05-23T14:52:46.050Z,21.14
2023-05-23T14:55:15.166Z,21.13
2023-05-23T14:57:43.374Z,21.08
2023-05-23T15:00:14.669Z,21.03
2023-05-23T15:02:43.081Z,21.13
2023-05-23T15:05:11.613Z,21.10
2023-05-23T15:07:40.450Z,21.14
2023-05-23T15:10:09.904Z,21.20
2023-05-23T15:12:38.298Z,21.22
2023-05-23T15:15:07.764Z,21.19
2023-05-23T15:17:37.421Z,21.16
2023-05-23T15:20:07.795Z,21.21
2023-05-23T15:22:39.849Z,21.24
2023-05-23T15:25:10.061Z,21.19
2023-05-23T15:27:38.382Z,21.17
2023-05-23T15:30:08.428Z,21.09
2023-05-23T15:32:37.932Z,21.02
2023-05-23T15:35:08.215Z,21.04
2023-05-23T15:37:36.349Z,21.08
2023-05-23T15:40:06.360Z,21.08
2023-05-23T15:42:36.951Z,21.01
2023-05-23T15:45:06.075Z,20.84
2023-05-23T15:47:35.270Z,20.81
2023-05-23T15:50:05.523Z,20.90
2023-05-23T15:52:34.236Z,20.96
2023-05-23T15:55:05.565Z,20.94
2023-05-23T15:57:35.360Z,20.91
2023-05-23T16:00:04.368Z,20.91
2023-05-23T16:02:40.058Z,20.97
2023-05-23T16:05:11.125Z,20.90
2023-05-23T16:07:41.257Z,20.90
2023-05-23T16:10:10.680Z,20.96
2023-05-23T16:12:38.789Z,20.97
2023-05-23T16:15:08.025Z,21.03
2023-05-23T16:17:36.248Z,20.97
2023-05-23T16:20:04.684Z,20.89
2023-05-23T16:22:34.670Z,20.74
2023-05-23T16:25:02.877Z,20.72
2023-05-23T16:27:31.059Z,20.72
2023-05-23T16:29:59.261Z,20.41
2023-05-23T16:32:28.879Z,20.44
2023-05-23T16:34:58.273Z,20.43
2023-05-23T16:37:27.497Z,20.21
2023-05-23T16:39:57.275Z,20.30
2023-05-23T16:42:26.195Z,20.30
2023-05-23T16:44:54.595Z,20.33
2023-05-23T16:47:22.852Z,20.07
2023-05-23T16:49:51.169Z,20.05
2023-05-23T16:52:19.532Z,20.10
2023-05-23T16:54:47.617Z,20.12
2023-05-23T16:57:17.159Z,20.06
2023-05-23T16:59:46.182Z,20.07
2023-05-23T17:02:15.918Z,20.08
2023-05-23T17:04:44.276Z,19.91
2023-05-23T17:07:12.344Z,20.00
2023-05-23T17:09:40.763Z,19.97
2023-05-23T17:12:10.282Z,19.95
2023-05-23T17:14:39.710Z,20.07
2023-05-23T17:17:08.212Z,20.05
2023-05-23T17:19:43.009Z,20.10
2023-05-23T17:22:11.656Z,20.04
2023-05-23T17:24:39.770Z,20.08
2023-05-23T17:27:09.671Z,20.10
2023-05-23T17:29:40.310Z,20.03
2023-05-23T17:32:11.253Z,20.04
2023-05-23T17:34:39.744Z,19.97
2023-05-23T17:37:09.101Z,19.94
2023-05-23T17:39:37.184Z,19.77
2023-05-23T17:42:06.086Z,19.66
2023-05-23T17:44:34.196Z,19.54
2023-05-23T17:47:06.368Z,19.59
2023-05-23T17:49:35.331Z,19.50
2023-05-23T17:52:05.756Z,19.39
2023-05-23T17:54:34.229Z,19.50
2023-05-23T17:57:03.270Z,19.38
2023-05-23T17:59:32.479Z,19.45
2023-05-23T18:02:04.626Z,19.36
2023-05-23T18:04:34.432Z,19.37
2023-05-23T18:07:03.363Z,19.38
2023-05-23T18:09:32.005Z,19.38
2023-05-23T18:12:00.596Z,19.40
2023-05-23T18:14:28.662Z,19.30
2023-05-23T18:16:57.255Z,19.28
2023-05-23T18:19:26.369Z,19.27
2023-05-23T18:21:57.447Z,19.26
2023-05-23T18:24:25.756Z,19.19
2023-05-23T18:26:53.933Z,19.07
2023-05-23T18:29:22.388Z,19.03
2023-05-23T18:31:50.465Z,19.12
2023-05-23T18:34:19.356Z,19.17
2023-05-23T18:36:47.642Z,19.09
2023-05-23T18:39:21.344Z,19.14
2023-05-23T18:41:50.378Z,19.12
2023-05-23T18:44:20.692Z,19.09
2023-05-23T18:46:49.228Z,19.04
2023-05-23T18:49:17.381Z,19.01
2023-05-23T18:51:48.374Z,18.97
2023-05-23T18:54:16.537Z,18.95
2023-05-23T18:56:45.986Z,18.95
2023-05-23T18:59:16.369Z,18.85
2023-05-23T19:01:45.399Z,18.82
2023-05-23T19:04:13.605Z,18.75
2023-05-23T19:06:41.767Z,18.61
2023-05-23T19:09:11.552Z,18.42
2023-05-23T19:11:40.277Z,18.47
2023-05-23T19:14:11.422Z,18.37
2023-05-23T19:16:40.461Z,18.44
2023-05-23T19:19:08.573Z,18.47
2023-05-23T19:21:36.650Z,18.46
2023-05-23T19:24:08.413Z,18.51
2023-05-23T19:26:37.162Z,18.41
2023-05-23T19:29:06.251Z,18.48
2023-05-23T19:31:38.599Z,18.54
2023-05-23T19:34:07.546Z,18.54
2023-05-23T19:36:36.571Z,18.54
2023-05-23T19:39:06.409Z,18.50
2023-05-23T19:41:34.575Z,18.55
2023-05-23T19:44:02.834Z,18.49
2023-05-23T19:46:31.369Z,18.52
2023-05-23T19:49:00.966Z,18.49
2023-05-23T19:51:29.663Z,18.46
2023-05-23T19:53:57.843Z,18.42
2023-05-23T19:56:27.224Z,18.43
2023-05-23T19:58:55.426Z,18.43
2023-05-23T20:01:23.674Z,18.35
2023-05-23T20:03:52.581Z,18.36
2023-05-23T20:06:22.405Z,18.34
2023-05-23T20:08:50.678Z,18.30
2023-05-23T20:11:19.426Z,18.35
2023-05-23T20:13:48.418Z,18.38
2023-05-23T20:16:17.868Z,18.41
2023-05-23T20:18:46.011Z,18.43
2023-05-23T20:21:14.120Z,18.44
2023-05-23T20:23:45.180Z,18.47
2023-05-23T20:26:13.376Z,18.47
2023-05-23T20:28:41.456Z,18.48
2023-05-23T20:31:10.573Z,18.43
2023-05-23T20:33:38.685Z,18.45
2023-05-23T20:36:07.713Z,18.45
2023-05-23T20:38:35.970Z,18.42
2023-05-23T20:41:07.497Z,18.45
2023-05-23T20:43:37.291Z,18.39
2023-05-23T20:46:06.552Z,18.40
2023-05-23T20:48:34.914Z,18.41
2023-05-23T20:51:05.550Z,18.34
2023-05-23T20:53:35.172Z,18.37
2023-05-23T20:56:05.502Z,18.37
2023-05-23T20:58:34.559Z,18.33
2023-05-23T21:01:04.708Z,18.33
2023-05-23T21:03:32.966Z,18.24
2023-05-23T21:06:01.118Z,18.27
2023-05-23T21:08:30.005Z,18.29
2023-05-23T21:10:59.349Z,18.25
2023-05-23T21:13:28.800Z,18.25
2023-05-23T21:16:00.893Z,18.24
2023-05-23T21:18:29.034Z,18.20
2023-05-23T21:20:57.175Z,18.17
2023-05-23T21:23:25.286Z,18.12
2023-05-23T21:25:54.521Z,18.12
2023-05-23T21:28:22.829Z,18.08
2023-05-23T21:30:52.680Z,18.11
2023-05-23T21:33:21.081Z,18.09
2023-05-23T21:35:49.495Z,18.13
2023-05-23T21:38:17.730Z,18.08
2023-05-23T21:40:45.991Z,18.03
2023-05-23T21:43:14.017Z,18.03
2023-05-23T21:45:42.733Z,18.06
2023-05-23T21:48:12.520Z,18.02
2023-05-23T21:50:40.823Z,17.96
2023-05-23T21:53:09.021Z,17.95
2023-05-23T21:55:37.121Z,17.82
2023-05-23T21:58:05.256Z,17.87
2023-05-23T22:00:33.450Z,17.82
2023-05-23T22:03:01.828Z,17.77
2023-05-23T22:05:31.472Z,17.74
2023-05-23T22:08:00.677Z,17.69
2023-05-23T22:10:29.039Z,17.62
2023-05-23T22:12:57.342Z,17.58
2023-05-23T22:15:25.403Z,17.55
2023-05-23T22:17:53.635Z,17.39
2023-05-23T22:20:23.211Z,17.40
2023-05-23T22:22:52.725Z,17.37
2023-05-23T22:25:21.820Z,17.36
2023-05-23T22:27:49.951Z,17.36
2023-05-23T22:30:18.726Z,17.30
2023-05-23T22:32:46.919Z,17.29
2023-05-23T22:35:15.123Z,17.20
2023-05-23T22:37:43.260Z,17.26
2023-05-23T22:40:13.073Z,17.18
2023-05-23T22:42:41.262Z,17.11
2023-05-23T22:45:10.781Z,17.08
2023-05-23T22:47:40.476Z,17.13
2023-05-23T22:50:10.413Z,17.10
2023-05-23T22:52:38.565Z,17.08
2023-05-23T22:55:10.153Z,17.11
2023-05-23T22:57:39.562Z,17.07
2023-05-23T23:00:13.511Z,17.08
2023-05-23T23:02:44.175Z,17.07
2023-05-23T23:05:12.815Z,17.09
2023-05-23T23:07:41.038Z,17.05
2023-05-23T23:10:10.898Z,17.04
2023-05-23T23:12:40.720Z,17.09
2023-05-23T23:15:10.133Z,17.11
2023-05-23T23:17:39.396Z,17.03
2023-05-23T23:20:10.312Z,17.02
2023-05-23T23:22:38.952Z,17.05
2023-05-23T23:25:10.390Z,16.99
2023-05-23T23:27:39.964Z,16.98
2023-05-23T23:30:10.246Z,17.00
2023-05-23T23:32:38.512Z,16.98
2023-05-23T23:35:07.556Z,16.89
2023-05-23T23:37:35.847Z,16.86
2023-05-23T23:40:04.926Z,16.85
2023-05-23T23:42:33.024Z,16.87
2023-05-23T23:45:02.503Z,16.78
2023-05-23T23:47:32.282Z,16.72
2023-05-23T23:50:00.665Z,16.72
2023-05-23T23:52:30.067Z,16.70
2023-05-23T23:54:58.150Z,16.70
2023-05-23T23:57:26.306Z,16.71
2023-05-23T23:59:54.413Z,16.69
